Terminal Aerodrome Forecast
Issued by NWS Milwaukee/Sullivan, WI

Current Version | Previous Version | Text Only | Print | Product List | Glossary On
Versions: 1 2 3 4 5 6 7 8 9 10 11 12 13 14 15 16 17 18 19 20 21 22
000
FTUS43 KMKX 281426 AAA
TAFMKE
TAF AMD
KMKE 281426Z 2814/2918 18007KT P6SM BKN250
     FM281500 19013G18KT P6SM -TSRA VCTS SCT028 BKN050CB
      TEMPO 2815/2816 4SM TSRA OVC025CB
     FM281700 19013G20KT P6SM -SHRA SCT030 BKN050
     FM281900 18017G26KT P6SM VCTS BKN050CB OVC060
     FM290100 20015KT P6SM SHRA VCTS SCT040CB BKN070
     FM290500 22013G23KT P6SM OVC090
     FM291300 24013KT P6SM BKN030
     FM291600 24012KT P6SM BKN045=

USA.gov is the U.S. government's official web portal to all federal, state and local government web resources and services.